Brownsville, Kentucky
Current Conditions -  °F | °C
As of 1:53 AM on Wednesday 26 Nov 2014 (Local Time) from KBWG Reporting Station
Clear Clear  
Wind Chill: 31°   Ceiling: Unl
Heat Index: 31°   Visibility: 9mi
Dew Point: 26°   Wind: 3mph
Humidity: 82%   Direction: 320°NW
Pressure: 30.14"   Gusts: NA
Location:  37.19°N, 86.27°W
Report Text: KBWG 260753Z AUTO 32003KT 9SM CLR M01/M03 A3014 RMK AO2 SLP210 T10061033
Loading
Personal Weather Stations






























Interactive Weather Map New forecast layout! Learn more

10-Day Weather Forecast

Advertisements
Track Severe Weather on mobile